createdAt,value
2019-01-18T00:00:01.126Z,98297.48
2019-01-18T00:02:34.148Z,98302.41
2019-01-18T00:05:05.214Z,98295.95
2019-01-18T00:07:35.732Z,98313.67
2019-01-18T00:10:09.328Z,98311.47
2019-01-18T00:12:39.833Z,98318.30
2019-01-18T00:15:10.542Z,98322.97
2019-01-18T00:17:41.017Z,98325.91
2019-01-18T00:20:12.352Z,98327.53
2019-01-18T00:22:42.852Z,98325.70
2019-01-18T00:25:14.160Z,98336.55
2019-01-18T00:27:44.536Z,98345.57
2019-01-18T00:30:15.264Z,98346.81
2019-01-18T00:32:45.712Z,98349.91
2019-01-18T00:35:16.308Z,98344.92
2019-01-18T00:37:46.757Z,98338.98
2019-01-18T00:40:17.702Z,98352.39
2019-01-18T00:42:48.232Z,98358.39
2019-01-18T00:45:19.024Z,98364.03
2019-01-18T00:47:49.556Z,98361.16
2019-01-18T00:50:20.508Z,98359.83
2019-01-18T00:52:51.092Z,98361.43
2019-01-18T00:55:21.692Z,98361.48
2019-01-18T00:57:52.139Z,98357.98
2019-01-18T01:00:28.482Z,98358.03
2019-01-18T01:02:59.003Z,98343.05
2019-01-18T01:05:30.473Z,98350.27
2019-01-18T01:08:01.002Z,98347.47
2019-01-18T01:10:31.518Z,98351.07
2019-01-18T01:13:01.982Z,98364.08
2019-01-18T01:15:32.615Z,98359.41
2019-01-18T01:18:03.212Z,98358.06
2019-01-18T01:20:33.762Z,98359.43
2019-01-18T01:23:04.663Z,98368.09
2019-01-18T01:25:35.293Z,98363.89
2019-01-18T01:28:07.422Z,98358.49
2019-01-18T01:30:37.916Z,98357.95
2019-01-18T01:33:08.873Z,98366.25
2019-01-18T01:35:39.281Z,98365.88
2019-01-18T01:38:09.899Z,98365.27
2019-01-18T01:40:40.429Z,98373.83
2019-01-18T01:43:10.912Z,98374.84
2019-01-18T01:45:41.382Z,98384.66
2019-01-18T01:48:12.328Z,98391.33
2019-01-18T01:50:42.715Z,98385.48
2019-01-18T01:53:13.167Z,98393.05
2019-01-18T01:55:43.923Z,98386.88
2019-01-18T01:58:14.283Z,98403.20
2019-01-18T02:00:44.968Z,98404.62
2019-01-18T02:03:15.447Z,98399.19
2019-01-18T02:05:45.832Z,98396.30
2019-01-18T02:08:16.692Z,98406.66
2019-01-18T02:10:47.170Z,98416.58
2019-01-18T02:13:17.462Z,98419.67
2019-01-18T02:15:48.083Z,98423.52
2019-01-18T02:18:18.575Z,98422.47
2019-01-18T02:20:48.988Z,98422.30
2019-01-18T02:23:19.526Z,98418.09
2019-01-18T02:25:50.098Z,98421.62
2019-01-18T02:28:20.473Z,98434.06
2019-01-18T02:30:52.191Z,98432.20
2019-01-18T02:33:22.552Z,98440.67
2019-01-18T02:35:53.019Z,98437.69
2019-01-18T02:38:23.432Z,98455.45
2019-01-18T02:40:53.942Z,98455.94
2019-01-18T02:43:24.459Z,98461.82
2019-01-18T02:45:54.917Z,98459.84
2019-01-18T02:48:25.388Z,98463.43
2019-01-18T02:50:55.879Z,98470.52
2019-01-18T02:53:26.232Z,98476.11
2019-01-18T02:55:56.726Z,98474.53
2019-01-18T02:58:27.142Z,98475.92
2019-01-18T03:00:57.527Z,98480.16
2019-01-18T03:03:27.936Z,98479.06
2019-01-18T03:05:58.528Z,98478.98
2019-01-18T03:08:28.982Z,98471.56
2019-01-18T03:10:59.365Z,98470.70
2019-01-18T03:13:29.845Z,98470.59
2019-01-18T03:16:00.132Z,98473.13
2019-01-18T03:18:30.513Z,98484.37
2019-01-18T03:21:01.001Z,98486.19
2019-01-18T03:23:31.783Z,98495.66
2019-01-18T03:26:02.371Z,98488.53
2019-01-18T03:28:32.875Z,98494.75
2019-01-18T03:31:03.453Z,98491.10
2019-01-18T03:33:35.362Z,98494.55
2019-01-18T03:36:06.140Z,98499.31
2019-01-18T03:38:36.584Z,98493.23
2019-01-18T03:41:07.104Z,98502.89
2019-01-18T03:43:37.910Z,98495.94
2019-01-18T03:46:08.272Z,98494.16
2019-01-18T03:48:38.642Z,98499.62
2019-01-18T03:51:09.118Z,98502.18
2019-01-18T03:53:39.554Z,98502.18
2019-01-18T03:56:10.082Z,98503.18
2019-01-18T03:58:40.412Z,98502.70
2019-01-18T04:01:10.713Z,98517.72
2019-01-18T04:03:41.244Z,98519.89
2019-01-18T04:06:11.652Z,98508.58
2019-01-18T04:08:41.997Z,98511.77
2019-01-18T04:11:12.484Z,98529.98
2019-01-18T04:13:42.953Z,98525.64
2019-01-18T04:16:13.493Z,98538.25
2019-01-18T04:18:43.974Z,98544.11
2019-01-18T04:21:14.344Z,98532.78
2019-01-18T04:23:47.764Z,98538.37
2019-01-18T04:26:18.150Z,98549.33
2019-01-18T04:28:48.552Z,98544.73
2019-01-18T04:31:18.966Z,98556.05
2019-01-18T04:33:49.437Z,98552.61
2019-01-18T04:36:19.995Z,98551.88
2019-01-18T04:38:50.422Z,98560.50
2019-01-18T04:41:20.868Z,98568.27
2019-01-18T04:43:51.359Z,98564.98
2019-01-18T04:46:21.689Z,98568.14
2019-01-18T04:48:52.287Z,98577.17
2019-01-18T04:51:22.694Z,98579.09
2019-01-18T04:53:53.134Z,98578.96
2019-01-18T04:56:23.473Z,98585.58
2019-01-18T04:58:53.944Z,98591.69
2019-01-18T05:01:24.409Z,98582.41
2019-01-18T05:03:54.828Z,98578.59
2019-01-18T05:06:25.263Z,98578.83
2019-01-18T05:08:55.797Z,98578.95
2019-01-18T05:11:26.272Z,98588.87
2019-01-18T05:13:56.832Z,98596.88
2019-01-18T05:16:27.703Z,98596.09
2019-01-18T05:18:58.119Z,98598.64
2019-01-18T05:21:28.840Z,98599.91
2019-01-18T05:23:59.462Z,98609.08
2019-01-18T05:26:29.942Z,98610.62
2019-01-18T05:29:00.453Z,98614.05
2019-01-18T05:31:31.209Z,98620.30
2019-01-18T05:34:01.624Z,98630.98
2019-01-18T05:36:32.256Z,98624.38
2019-01-18T05:39:03.034Z,98640.40
2019-01-18T05:41:33.652Z,98643.47
2019-01-18T05:44:04.132Z,98654.39
2019-01-18T05:46:34.688Z,98660.01
2019-01-18T05:49:05.123Z,98666.73
2019-01-18T05:51:36.755Z,98665.97
2019-01-18T05:54:07.778Z,98667.64
2019-01-18T05:56:39.790Z,98672.61
2019-01-18T05:59:10.868Z,98664.73
2019-01-18T06:01:41.868Z,98677.05
2019-01-18T06:04:12.860Z,98683.69
2019-01-18T06:06:44.431Z,98686.48
2019-01-18T06:09:16.069Z,98694.12
2019-01-18T06:11:46.588Z,98701.38
2019-01-18T06:14:17.076Z,98702.28
2019-01-18T06:16:47.802Z,98705.57
2019-01-18T06:19:18.433Z,98712.71
2019-01-18T06:21:48.990Z,98716.78
2019-01-18T06:24:20.233Z,98711.97
2019-01-18T06:26:50.804Z,98731.56
2019-01-18T06:29:21.252Z,98735.50
2019-01-18T06:31:52.072Z,98739.33
2019-01-18T06:34:22.547Z,98736.65
2019-01-18T06:36:53.034Z,98744.79
2019-01-18T06:39:23.549Z,98747.87
2019-01-18T06:41:55.182Z,98761.38
2019-01-18T06:44:26.058Z,98766.59
2019-01-18T06:46:56.670Z,98778.67
2019-01-18T06:49:27.333Z,98778.55
2019-01-18T06:51:57.962Z,98781.75
2019-01-18T06:54:28.432Z,98792.44
2019-01-18T06:56:59.052Z,98789.77
2019-01-18T06:59:29.607Z,98803.16
2019-01-18T07:02:00.182Z,98802.88
2019-01-18T07:04:30.666Z,98816.14
2019-01-18T07:07:01.323Z,98820.98
2019-01-18T07:09:31.902Z,98827.61
2019-01-18T07:12:02.513Z,98830.16
2019-01-18T07:14:33.230Z,98843.92
2019-01-18T07:17:03.806Z,98848.23
2019-01-18T07:19:34.428Z,98846.72
2019-01-18T07:22:05.142Z,98856.62
2019-01-18T07:24:35.706Z,98855.63
2019-01-18T07:27:06.215Z,98865.04
2019-01-18T07:29:36.743Z,98868.98
2019-01-18T07:32:07.258Z,98882.63
2019-01-18T07:34:37.708Z,98887.85
2019-01-18T07:37:08.238Z,98891.05
2019-01-18T07:39:38.982Z,98901.73
2019-01-18T07:42:09.626Z,98902.11
2019-01-18T07:44:40.353Z,98902.88
2019-01-18T07:47:10.847Z,98912.17
2019-01-18T07:49:41.186Z,98922.11
2019-01-18T07:52:11.741Z,98933.80
2019-01-18T07:54:42.381Z,98942.39
2019-01-18T07:57:12.913Z,98957.95
2019-01-18T07:59:43.612Z,98966.82
2019-01-18T08:02:14.313Z,98984.84
2019-01-18T08:04:44.887Z,98990.28
2019-01-18T08:07:15.552Z,98994.60
2019-01-18T08:09:46.102Z,98995.41
2019-01-18T08:12:16.514Z,99013.98
2019-01-18T08:14:47.158Z,99012.55
2019-01-18T08:17:17.692Z,99024.37
2019-01-18T08:19:48.118Z,99031.09
2019-01-18T08:22:18.597Z,99037.41
2019-01-18T08:24:49.139Z,99043.10
2019-01-18T08:27:19.647Z,99041.96
2019-01-18T08:29:50.046Z,99044.38
2019-01-18T08:32:20.618Z,99055.45
2019-01-18T08:34:51.232Z,99061.73
2019-01-18T08:37:22.006Z,99065.55
2019-01-18T08:39:52.448Z,99072.27
2019-01-18T08:42:23.080Z,99082.94
2019-01-18T08:44:53.477Z,99092.98
2019-01-18T08:47:24.098Z,99097.33
2019-01-18T08:49:54.566Z,99110.50
2019-01-18T08:52:25.118Z,99118.48
2019-01-18T08:54:55.645Z,99127.34
2019-01-18T08:57:26.728Z,99130.16
2019-01-18T08:59:57.134Z,99132.11
2019-01-18T09:02:27.700Z,99141.52
2019-01-18T09:04:58.243Z,99152.90
2019-01-18T09:07:28.818Z,99153.27
2019-01-18T09:09:59.289Z,99163.89
2019-01-18T09:12:30.568Z,99168.09
2019-01-18T09:15:01.079Z,99174.37
2019-01-18T09:17:31.692Z,99181.31
2019-01-18T09:20:02.247Z,99191.58
2019-01-18T09:22:32.712Z,99192.22
2019-01-18T09:25:03.152Z,99195.39
2019-01-18T09:27:33.977Z,99210.55
2019-01-18T09:30:05.703Z,99205.92
2019-01-18T09:32:36.223Z,99221.63
2019-01-18T09:35:09.650Z,99227.25
2019-01-18T09:37:40.356Z,99233.16
2019-01-18T09:40:16.147Z,99239.30
2019-01-18T09:42:46.707Z,99242.59
2019-01-18T09:45:17.262Z,99251.25
2019-01-18T09:47:48.118Z,99256.64
2019-01-18T09:50:28.316Z,99258.45
2019-01-18T09:52:59.698Z,99267.13
2019-01-18T09:55:30.196Z,99258.89
2019-01-18T09:58:00.755Z,99267.41
2019-01-18T10:00:34.702Z,99273.70
2019-01-18T10:03:05.805Z,99271.09
2019-01-18T10:05:36.593Z,99278.63
2019-01-18T10:08:12.607Z,99279.50
2019-01-18T10:10:43.448Z,99282.88
2019-01-18T10:13:14.047Z,99294.67
2019-01-18T10:15:46.927Z,99292.75
2019-01-18T10:18:18.239Z,99292.60
2019-01-18T10:20:48.886Z,99300.23
2019-01-18T10:23:19.417Z,99302.70
2019-01-18T10:25:50.062Z,99312.45
2019-01-18T10:28:20.496Z,99316.49
2019-01-18T10:30:51.530Z,99313.80
2019-01-18T10:33:21.985Z,99322.77
2019-01-18T10:35:52.483Z,99329.96
2019-01-18T10:38:22.956Z,99333.19
2019-01-18T10:40:53.458Z,99344.30
2019-01-18T10:43:23.883Z,99341.95
2019-01-18T10:45:54.334Z,99349.24
2019-01-18T10:48:24.802Z,99356.14
2019-01-18T10:50:55.297Z,99358.53
2019-01-18T10:53:26.397Z,99357.25
2019-01-18T10:55:56.977Z,99363.54
2019-01-18T10:58:27.509Z,99370.47
2019-01-18T11:00:58.024Z,99372.86
2019-01-18T11:03:28.587Z,99369.64
2019-01-18T11:05:59.037Z,99372.86
2019-01-18T11:08:29.627Z,99369.97
2019-01-18T11:11:00.262Z,99383.67
2019-01-18T11:13:31.148Z,99388.67
2019-01-18T11:16:01.757Z,99388.39
2019-01-18T11:18:32.398Z,99399.97
2019-01-18T11:21:14.307Z,99403.44
2019-01-18T11:23:44.797Z,99405.61
2019-01-18T11:26:15.498Z,99404.13
2019-01-18T11:28:46.032Z,99411.90
2019-01-18T11:31:16.630Z,99412.19
2019-01-18T11:33:47.269Z,99417.72
2019-01-18T11:36:17.919Z,99417.16
2019-01-18T11:38:48.540Z,99418.00
2019-01-18T11:41:19.152Z,99418.65
2019-01-18T11:43:49.712Z,99424.36
2019-01-18T11:46:20.337Z,99419.99
2019-01-18T11:48:50.877Z,99426.41
2019-01-18T11:51:21.577Z,99428.80
2019-01-18T11:53:51.948Z,99436.36
2019-01-18T11:56:22.417Z,99436.72
2019-01-18T11:58:53.217Z,99434.03
2019-01-18T12:01:23.671Z,99445.61
2019-01-18T12:03:54.210Z,99449.83
2019-01-18T12:06:25.012Z,99455.56
2019-01-18T12:08:55.524Z,99457.40
2019-01-18T12:11:26.102Z,99464.33
2019-01-18T12:13:56.598Z,99466.52
2019-01-18T12:16:27.057Z,99474.72
2019-01-18T12:18:57.694Z,99472.59
2019-01-18T12:21:28.272Z,99479.23
2019-01-18T12:23:58.746Z,99483.03
2019-01-18T12:26:29.085Z,99483.63
2019-01-18T12:28:59.586Z,99489.13
2019-01-18T12:31:30.037Z,99483.42
2019-01-18T12:34:00.378Z,99494.66
2019-01-18T12:36:30.953Z,99503.00
2019-01-18T12:39:01.487Z,99508.53
2019-01-18T12:41:32.397Z,99505.90
2019-01-18T12:44:02.884Z,99503.98
2019-01-18T12:46:33.319Z,99508.39
2019-01-18T12:49:03.876Z,99515.04
2019-01-18T12:51:34.465Z,99517.08
2019-01-18T12:54:04.972Z,99522.86
2019-01-18T12:56:35.816Z,99518.81
2019-01-18T12:59:07.334Z,99524.20
2019-01-18T13:01:37.905Z,99529.73
2019-01-18T13:04:08.380Z,99535.62
2019-01-18T13:06:38.960Z,99534.91
2019-01-18T13:09:10.027Z,99542.08
2019-01-18T13:11:40.543Z,99540.77
2019-01-18T13:14:11.047Z,99547.70
2019-01-18T13:16:46.539Z,99554.80
2019-01-18T13:19:23.856Z,99560.05
2019-01-18T13:21:54.542Z,99567.80
2019-01-18T13:24:25.260Z,99557.84
2019-01-18T13:26:55.731Z,99565.90
2019-01-18T13:29:26.272Z,99576.28
2019-01-18T13:31:56.832Z,99576.02
2019-01-18T13:34:27.422Z,99584.03
2019-01-18T13:36:57.852Z,99589.25
2019-01-18T13:39:28.308Z,99596.09
2019-01-18T13:41:59.955Z,99601.19
2019-01-18T13:44:30.847Z,99607.82
2019-01-18T13:47:01.388Z,99606.52
2019-01-18T13:49:31.928Z,99612.63
2019-01-18T13:52:02.518Z,99615.42
2019-01-18T13:54:33.133Z,99606.52
2019-01-18T13:57:03.597Z,99610.81
2019-01-18T13:59:33.977Z,99613.78
2019-01-18T14:02:04.582Z,99610.78
2019-01-18T14:04:35.148Z,99619.59
2019-01-18T14:07:05.737Z,99631.77
2019-01-18T14:09:36.309Z,99626.44
2019-01-18T14:12:07.078Z,99630.83
2019-01-18T14:14:37.634Z,99633.58
2019-01-18T14:17:08.118Z,99636.84
2019-01-18T14:19:38.849Z,99643.86
2019-01-18T14:22:09.398Z,99649.36
2019-01-18T14:24:39.928Z,99648.96
2019-01-18T14:27:10.403Z,99652.62
2019-01-18T14:29:40.967Z,99655.86
2019-01-18T14:32:11.691Z,99655.75
2019-01-18T14:34:42.352Z,99657.65
2019-01-18T14:37:13.057Z,99660.29
2019-01-18T14:39:43.621Z,99667.20
2019-01-18T14:42:14.217Z,99672.59
2019-01-18T14:44:44.802Z,99668.67
2019-01-18T14:47:15.887Z,99668.63
2019-01-18T14:49:46.552Z,99665.69
2019-01-18T14:52:17.102Z,99672.48
2019-01-18T14:54:47.697Z,99671.98
2019-01-18T14:57:18.232Z,99669.07
2019-01-18T14:59:48.649Z,99666.63
2019-01-18T15:02:19.132Z,99682.06
2019-01-18T15:04:49.798Z,99687.23
2019-01-18T15:07:20.579Z,99689.70
2019-01-18T15:09:51.228Z,99692.28
2019-01-18T15:12:22.803Z,99697.48
2019-01-18T15:14:53.612Z,99699.11
2019-01-18T15:17:24.995Z,99702.84
2019-01-18T15:19:55.621Z,99706.67
2019-01-18T15:22:26.114Z,99707.59
2019-01-18T15:24:56.587Z,99713.02
2019-01-18T15:27:27.103Z,99706.48
2019-01-18T15:29:57.617Z,99712.11
2019-01-18T15:32:36.369Z,99720.52
2019-01-18T15:35:09.434Z,99717.40
2019-01-18T15:37:45.027Z,99719.38
2019-01-18T15:40:19.384Z,99725.27
2019-01-18T15:42:50.100Z,99731.61
2019-01-18T15:45:20.792Z,99734.77
2019-01-18T15:47:51.372Z,99739.06
2019-01-18T15:50:29.072Z,99743.98
2019-01-18T15:52:59.804Z,99741.57
2019-01-18T15:55:31.075Z,99744.81
2019-01-18T15:58:01.799Z,99743.98
2019-01-18T16:00:44.142Z,99744.36
2019-01-18T16:03:16.157Z,99757.10
2019-01-18T16:05:50.498Z,99750.95
2019-01-18T16:08:21.303Z,99757.94
2019-01-18T16:10:51.982Z,99758.34
2019-01-18T16:13:22.652Z,99762.25
2019-01-18T16:16:13.823Z,99761.08
2019-01-18T16:18:44.322Z,99758.12
2019-01-18T16:21:15.300Z,99761.08
2019-01-18T16:23:46.012Z,99760.89
2019-01-18T16:26:16.663Z,99765.27
2019-01-18T16:28:47.216Z,99764.39
2019-01-18T16:31:17.843Z,99758.43
2019-01-18T16:33:48.477Z,99764.27
2019-01-18T16:36:20.160Z,99767.35
2019-01-18T16:38:51.989Z,99780.40
2019-01-18T16:41:34.345Z,99776.45
2019-01-18T16:44:05.199Z,99776.50
2019-01-18T16:46:35.863Z,99779.92
2019-01-18T16:49:09.569Z,99782.30
2019-01-18T16:51:42.366Z,99784.84
2019-01-18T16:54:23.798Z,99774.95
2019-01-18T16:56:54.428Z,99786.69
2019-01-18T16:59:27.296Z,99786.34
2019-01-18T17:01:58.071Z,99787.44
2019-01-18T17:04:29.690Z,99779.11
2019-01-18T17:07:02.725Z,99782.55
2019-01-18T17:09:34.415Z,99785.78
2019-01-18T17:12:06.675Z,99784.52
2019-01-18T17:14:37.302Z,99785.96
2019-01-18T17:17:13.396Z,99788.31
2019-01-18T17:19:44.004Z,99779.46
2019-01-18T17:22:17.549Z,99784.70
2019-01-18T17:24:48.042Z,99785.61
2019-01-18T17:27:22.212Z,99790.50
2019-01-18T17:29:56.265Z,99788.14
2019-01-18T17:32:28.456Z,99791.58
2019-01-18T17:35:09.073Z,99802.40
2019-01-18T17:37:48.317Z,99803.14
2019-01-18T17:40:39.100Z,99803.31
2019-01-18T17:44:04.326Z,99807.83
2019-01-18T17:47:13.425Z,99812.14
2019-01-18T17:50:26.276Z,99811.60
2019-01-18T17:53:44.872Z,99815.73
2019-01-18T17:56:55.985Z,99812.67
2019-01-18T18:00:18.238Z,99815.37
2019-01-18T18:03:36.599Z,99821.34
2019-01-18T18:06:53.462Z,99821.52
2019-01-18T18:09:45.097Z,99829.27
2019-01-18T18:12:58.606Z,99824.56
2019-01-18T18:16:22.879Z,99824.56
2019-01-18T18:19:52.313Z,99827.30
2019-01-18T18:23:19.532Z,99827.47
2019-01-18T18:26:23.842Z,99835.39
2019-01-18T18:29:44.356Z,99843.48
2019-01-18T18:33:15.386Z,99837.88
2019-01-18T18:36:43.367Z,99848.72
2019-01-18T18:39:57.778Z,99846.35
2019-01-18T18:43:18.004Z,99846.86
2019-01-18T18:46:34.808Z,99845.59
2019-01-18T18:49:49.419Z,99849.38
2019-01-18T18:53:22.638Z,99853.54
2019-01-18T18:56:39.367Z,99854.58
2019-01-18T19:00:03.027Z,99853.55
2019-01-18T19:03:22.991Z,99846.49
2019-01-18T19:06:46.823Z,99853.72
2019-01-18T19:10:05.711Z,99852.61
2019-01-18T19:13:22.553Z,99858.73
2019-01-18T19:16:49.688Z,99864.13
2019-01-18T19:20:18.710Z,99868.98
2019-01-18T19:23:27.602Z,99866.27
2019-01-18T19:26:44.732Z,99866.63
2019-01-18T19:30:14.458Z,99864.85
2019-01-18T19:33:29.213Z,99871.87
2019-01-18T19:37:00.409Z,99874.55
2019-01-18T19:40:14.949Z,99867.88
2019-01-18T19:43:30.611Z,99877.95
2019-01-18T19:47:07.006Z,99875.27
2019-01-18T19:50:02.183Z,99872.39
2019-01-18T19:55:56.711Z,99873.89
2019-01-18T19:59:11.346Z,99875.66
2019-01-18T20:02:29.703Z,99876.21
2019-01-18T20:05:52.459Z,99876.73
2019-01-18T20:09:01.192Z,99878.32
2019-01-18T20:12:24.212Z,99885.27
2019-01-18T20:15:45.042Z,99876.38
2019-01-18T20:19:16.390Z,99883.20
2019-01-18T20:22:30.075Z,99878.30
2019-01-18T20:25:38.816Z,99882.97
2019-01-18T20:28:34.820Z,99891.25
2019-01-18T20:31:37.763Z,99893.02
2019-01-18T20:34:46.908Z,99893.38
2019-01-18T20:37:57.472Z,99889.75
2019-01-18T20:40:55.806Z,99895.66
2019-01-18T20:44:21.753Z,99905.41
2019-01-18T20:47:28.342Z,99909.73
2019-01-18T20:50:51.124Z,99910.42
2019-01-18T20:53:59.238Z,99914.26
2019-01-18T20:57:12.862Z,99908.73
2019-01-18T21:00:12.970Z,99910.03
2019-01-18T21:03:27.845Z,99913.61
2019-01-18T21:06:20.731Z,99912.52
2019-01-18T21:09:44.469Z,99913.23
2019-01-18T21:12:36.048Z,99913.77
2019-01-18T21:15:42.647Z,99916.78
2019-01-18T21:19:10.675Z,99923.46
2019-01-18T21:22:39.198Z,99920.91
2019-01-18T21:25:54.588Z,99918.94
2019-01-18T21:29:19.712Z,99921.27
2019-01-18T21:32:35.517Z,99925.31
2019-01-18T21:35:54.792Z,99930.52
2019-01-18T21:39:14.400Z,99929.22
2019-01-18T21:42:29.385Z,99930.64
2019-01-18T21:45:47.077Z,99927.02
2019-01-18T21:48:53.752Z,99929.66
2019-01-18T21:52:16.102Z,99929.76
2019-01-18T21:55:28.797Z,99926.64
2019-01-18T21:58:36.153Z,99932.70
2019-01-18T22:01:33.136Z,99934.81
2019-01-18T22:04:40.128Z,99938.09
2019-01-18T22:07:39.508Z,99940.33
2019-01-18T22:10:57.246Z,99936.80
2019-01-18T22:14:24.332Z,99940.93
2019-01-18T22:17:43.361Z,99944.59
2019-01-18T22:21:06.226Z,99941.02
2019-01-18T22:24:19.580Z,99927.45
2019-01-18T22:27:17.953Z,99926.50
2019-01-18T22:30:31.644Z,99932.13
2019-01-18T22:33:32.641Z,99932.97
2019-01-18T22:36:56.186Z,99939.87
2019-01-18T22:40:13.751Z,99933.73
2019-01-18T22:43:11.936Z,99942.05
2019-01-18T22:46:04.045Z,99946.74
2019-01-18T22:48:58.683Z,99951.25
2019-01-18T22:52:06.004Z,99943.69
2019-01-18T22:55:21.132Z,99951.95
2019-01-18T22:58:50.773Z,99954.09
2019-01-18T23:02:04.261Z,99954.47
2019-01-18T23:05:32.151Z,99949.80
2019-01-18T23:09:00.528Z,99943.12
2019-01-18T23:12:13.601Z,99934.70
2019-01-18T23:15:30.226Z,99929.52
2019-01-18T23:18:19.207Z,99934.23
2019-01-18T23:21:20.236Z,99934.13
2019-01-18T23:24:19.811Z,99926.23
2019-01-18T23:27:25.853Z,99928.19
2019-01-18T23:30:36.601Z,99931.92
2019-01-18T23:33:53.029Z,99919.60
2019-01-18T23:37:05.401Z,99920.14
2019-01-18T23:40:23.087Z,99913.97
2019-01-18T23:43:37.956Z,99906.55
2019-01-18T23:47:06.413Z,99910.84
2019-01-18T23:50:34.344Z,99913.84
2019-01-18T23:53:28.610Z,99917.06
2019-01-18T23:56:26.197Z,99915.72
2019-01-18T23:59:44.081Z,99913.34
